Time;durP1;ratioP1;P1;durP2;ratioP2;P2;SDS_P1;SDS_P2;PMS_P1;PMS_P2;Temp;Humidity;BMP_temperature;BMP_pressure;BME280_temperature;BME280_humidity;BME280_pressure;Samples;Min_cycle;Max_cycle;Signal;HPM_P1;HPM_P2
2022/07/26 00:01:56;;;;;;;7.82;7.10;;;;;;;27.59;50.74;100416.81;5022590;28;20494;-76
2022/07/26 00:04:24;;;;;;;8.50;7.70;;;;;;;27.61;50.67;100431.03;5013557;28;20057;-76
2022/07/26 00:06:52;;;;;;;8.32;7.35;;;;;;;27.61;50.90;100441.94;5013962;28;20045;-76
2022/07/26 00:09:19;;;;;;;9.00;6.90;;;;;;;27.63;50.70;100467.06;5013397;28;20050;-76
2022/07/26 00:11:47;;;;;;;8.18;7.35;;;;;;;27.64;51.01;100481.50;5013408;28;20050;-76
2022/07/26 00:14:14;;;;;;;9.95;7.47;;;;;;;27.65;50.85;100502.19;5013853;28;20339;-76
2022/07/26 00:16:42;;;;;;;8.35;7.28;;;;;;;27.67;50.78;100513.72;5013415;28;20512;-76
2022/07/26 00:19:09;;;;;;;7.75;6.97;;;;;;;27.67;50.91;100514.59;5013782;28;20050;-76
2022/07/26 00:21:37;;;;;;;7.53;6.70;;;;;;;27.68;50.71;100523.59;5013428;28;20490;-76
2022/07/26 00:24:07;;;;;;;7.90;7.13;;;;;;;27.69;50.80;100514.38;5013248;28;20041;-76
2022/07/26 00:26:35;;;;;;;8.35;7.50;;;;;;;27.71;50.93;100525.88;5014400;28;20144;-76
2022/07/26 00:29:04;;;;;;;6.88;6.28;;;;;;;27.71;51.01;100524.03;5014667;28;20050;-76
2022/07/26 00:31:32;;;;;;;7.75;6.93;;;;;;;27.72;50.74;100527.59;5014769;28;20045;-76
2022/07/26 00:33:59;;;;;;;7.15;6.50;;;;;;;27.73;50.64;100534.72;5015641;28;20045;-76
2022/07/26 00:36:28;;;;;;;10.75;7.45;;;;;;;27.73;50.69;100524.69;5016817;28;20383;-75
2022/07/26 00:38:55;;;;;;;8.27;7.47;;;;;;;27.75;50.64;100519.91;5013526;28;20050;-76
2022/07/26 00:41:23;;;;;;;8.38;7.57;;;;;;;27.76;51.02;100513.44;5026325;28;20045;-76
2022/07/26 00:43:58;;;;;;;8.32;6.93;;;;;;;27.77;51.00;100512.41;5033113;28;20064;-76
2022/07/26 00:46:27;;;;;;;8.88;7.72;;;;;;;27.78;50.78;100510.50;5032798;28;20072;-77
2022/07/26 00:48:54;;;;;;;7.75;7.05;;;;;;;27.79;50.93;100514.91;5015429;28;20053;-76
2022/07/26 00:51:22;;;;;;;7.78;6.97;;;;;;;27.79;51.15;100507.63;5033371;28;20082;-76
2022/07/26 00:53:50;;;;;;;7.25;6.65;;;;;;;27.80;50.73;100509.28;5032748;28;20045;-76
2022/07/26 00:56:17;;;;;;;8.68;6.53;;;;;;;27.80;50.87;100498.41;5032599;28;20056;-77
2022/07/26 00:58:45;;;;;;;7.82;7.05;;;;;;;27.82;50.97;100504.47;5032477;28;20057;-77
2022/07/26 01:01:12;;;;;;;7.65;6.95;;;;;;;27.83;51.03;100508.03;5027645;28;20474;-76
2022/07/26 01:03:40;;;;;;;7.60;6.95;;;;;;;27.84;50.63;100507.03;5013087;28;20486;-76
2022/07/26 01:06:08;;;;;;;7.97;6.35;;;;;;;27.84;50.59;100502.41;5013359;28;20050;-77
2022/07/26 01:08:35;;;;;;;8.32;7.53;;;;;;;27.85;51.10;100489.66;5012797;28;20418;-77
2022/07/26 01:11:03;;;;;;;7.15;6.45;;;;;;;27.86;51.00;100477.72;5013430;28;20156;-77
2022/07/26 01:13:30;;;;;;;7.55;6.85;;;;;;;27.87;50.97;100484.84;5012859;28;20046;-77
2022/07/26 01:16:02;;;;;;;7.55;6.85;;;;;;;27.88;51.12;100474.84;5019755;28;20482;-77
2022/07/26 01:18:29;;;;;;;7.18;6.22;;;;;;;27.89;50.61;100473.78;5032741;28;20046;-77
2022/07/26 01:21:01;;;;;;;8.98;6.82;;;;;;;27.90;50.82;100479.00;5032382;28;20046;-76
2022/07/26 01:23:42;;;;;;;7.70;7.00;;;;;;;27.91;50.94;100480.69;5032340;28;20045;-76
2022/07/26 01:26:10;;;;;;;6.88;6.20;;;;;;;27.92;50.88;100481.56;5032725;28;20410;-75
2022/07/26 01:28:38;;;;;;;7.40;6.70;;;;;;;27.93;50.87;100484.06;5032554;28;20045;-76
2022/07/26 01:31:06;;;;;;;7.35;6.75;;;;;;;27.93;51.17;100473.19;5032646;28;20485;-76
2022/07/26 01:33:34;;;;;;;7.70;7.05;;;;;;;27.95;51.17;100481.97;5032612;28;20048;-76
2022/07/26 01:36:01;;;;;;;8.13;7.38;;;;;;;27.95;50.77;100481.13;5031316;28;20049;-76
2022/07/26 01:38:29;;;;;;;7.10;6.40;;;;;;;27.95;50.82;100476.53;5032635;28;20048;-76
2022/07/26 01:40:56;;;;;;;7.97;7.18;;;;;;;27.97;50.90;100474.47;5030395;28;20053;-76
2022/07/26 01:43:23;;;;;;;8.65;7.65;;;;;;;27.97;50.93;100488.06;5011314;28;20049;-76
2022/07/26 01:45:54;;;;;;;7.55;6.95;;;;;;;27.97;50.88;100488.06;5013257;28;20056;-76
2022/07/26 01:48:21;;;;;;;7.45;6.85;;;;;;;27.98;51.47;100489.75;5012769;28;20041;-77
2022/07/26 01:50:49;;;;;;;8.07;6.65;;;;;;;28.00;50.99;100489.56;5012245;28;20046;-77
2022/07/26 01:53:16;;;;;;;8.02;6.90;;;;;;;28.00;50.67;100478.69;5011716;28;20058;-76
2022/07/26 01:55:43;;;;;;;7.82;7.07;;;;;;;28.02;50.90;100487.47;5012621;28;20049;-76
2022/07/26 01:58:11;;;;;;;7.50;6.63;;;;;;;28.02;50.73;100485.59;5013187;28;20046;-76
2022/07/26 02:00:41;;;;;;;9.88;6.93;;;;;;;28.03;50.88;100490.00;5021582;28;20060;-75
2022/07/26 02:03:09;;;;;;;7.75;6.40;;;;;;;28.05;51.11;100496.09;5014770;28;20053;-75
2022/07/26 02:05:36;;;;;;;7.80;7.10;;;;;;;28.05;51.12;100493.38;5015534;28;20052;-76
2022/07/26 02:08:04;;;;;;;7.45;6.75;;;;;;;28.06;51.21;100489.59;5015708;28;20050;-76
2022/07/26 02:13:18;;;;;;;7.93;7.20;;;;;;;28.07;51.08;100483.13;5016505;28;20050;-77
2022/07/26 02:15:46;;;;;;;7.78;6.32;;;;;;;28.08;51.32;100486.72;5014575;28;20520;-76
2022/07/26 02:18:16;;;;;;;7.50;6.50;;;;;;;28.09;50.98;100481.06;5016012;28;20053;-77
2022/07/26 02:20:44;;;;;;;7.53;6.70;;;;;;;28.10;51.16;100479.16;5015873;28;20041;-77
2022/07/26 02:23:12;;;;;;;7.28;6.60;;;;;;;28.11;51.14;100486.28;5014385;28;20057;-77
2022/07/26 02:25:39;;;;;;;7.18;6.55;;;;;;;28.12;51.01;100481.72;5015817;28;20046;-77
2022/07/26 02:28:06;;;;;;;8.00;7.25;;;;;;;28.11;51.50;100483.56;5016110;28;20073;-76
2022/07/26 02:30:34;;;;;;;7.75;7.10;;;;;;;28.12;51.57;100477.09;5015677;28;20045;-77
2022/07/26 02:33:01;;;;;;;7.35;6.78;;;;;;;28.13;50.94;100481.50;5015722;28;20053;-76
2022/07/26 02:35:30;;;;;;;7.50;6.80;;;;;;;28.14;51.21;100476.91;5015434;28;20042;-76
2022/07/26 02:38:06;;;;;;;7.47;6.88;;;;;;;28.14;51.39;100466.84;5015439;28;20050;-76
2022/07/26 02:40:35;;;;;;;7.28;6.57;;;;;;;28.15;51.05;100470.41;5015410;28;20062;-76
2022/07/26 02:43:04;;;;;;;8.18;7.38;;;;;;;28.16;51.14;100480.28;5014961;28;20054;-76
2022/07/26 02:45:32;;;;;;;7.70;6.75;;;;;;;28.17;51.68;100481.94;5017702;28;20425;-77
2022/07/26 02:47:59;;;;;;;7.80;6.82;;;;;;;28.16;51.63;100472.09;5015222;28;20042;-76
2022/07/26 02:50:28;;;;;;;7.82;7.03;;;;;;;28.17;52.18;100473.78;5014932;28;20501;-75
2022/07/26 02:52:56;;;;;;;8.27;7.45;;;;;;;28.17;52.14;100477.34;5015351;28;20050;-75
2022/07/26 02:55:25;;;;;;;9.93;7.10;;;;;;;28.18;52.42;100472.75;5015022;28;20046;-75
2022/07/26 02:57:53;;;;;;;8.70;6.80;;;;;;;28.18;52.01;100480.91;5014988;28;20054;-75
2022/07/26 03:00:23;;;;;;;8.25;7.45;;;;;;;28.18;52.81;100480.91;5015123;28;20485;-75
2022/07/26 03:02:51;;;;;;;27.02;9.02;;;;;;;28.17;53.05;100479.22;5032959;28;20042;-75
2022/07/26 03:05:19;;;;;;;9.95;8.05;;;;;;;28.18;52.92;100480.91;5034495;28;20041;-75
2022/07/26 03:07:47;;;;;;;9.10;8.15;;;;;;;28.17;53.46;100482.78;5034676;28;20053;-75
2022/07/26 03:10:15;;;;;;;9.15;8.23;;;;;;;28.17;53.46;100473.78;5033871;28;20049;-75
2022/07/26 03:12:43;;;;;;;10.00;8.70;;;;;;;28.17;53.38;100484.66;5034282;28;20406;-74
2022/07/26 03:15:11;;;;;;;9.80;8.75;;;;;;;28.16;53.09;100483.84;5034360;28;20045;-75
2022/07/26 03:17:38;;;;;;;9.38;8.43;;;;;;;28.15;53.53;100475.84;5022505;28;20045;-75
2022/07/26 03:20:06;;;;;;;9.55;8.35;;;;;;;28.17;53.21;100476.50;5014259;28;20050;-75
2022/07/26 03:22:34;;;;;;;8.65;7.75;;;;;;;28.16;52.82;100478.38;5014368;28;20049;-75
2022/07/26 03:25:01;;;;;;;8.50;7.70;;;;;;;28.17;53.42;100485.50;5014163;28;20049;-75
2022/07/26 03:27:28;;;;;;;9.38;8.00;;;;;;;28.18;53.13;100483.63;5013642;28;20057;-75
2022/07/26 03:29:56;;;;;;;8.52;7.50;;;;;;;28.18;53.18;100476.28;5014209;28;20046;-75
2022/07/26 03:32:23;;;;;;;10.30;7.95;;;;;;;28.16;53.53;100474.84;5014290;28;20042;-75
2022/07/26 03:34:50;;;;;;;9.75;8.75;;;;;;;28.14;53.32;100479.63;5014060;28;20045;-75
2022/07/26 03:37:17;;;;;;;8.43;7.72;;;;;;;28.11;53.65;100489.00;5014424;28;20050;-75
2022/07/26 03:39:45;;;;;;;9.23;8.18;;;;;;;28.07;53.47;100491.28;5013975;28;20044;-75
2022/07/26 03:42:12;;;;;;;10.65;8.60;;;;;;;28.06;53.27;100486.88;5013045;28;20533;-74
2022/07/26 03:44:40;;;;;;;8.55;7.68;;;;;;;28.07;53.74;100494.00;5012860;28;20355;-75
2022/07/26 03:47:07;;;;;;;8.40;7.60;;;;;;;28.07;53.62;100496.72;5013499;28;20057;-75
2022/07/26 03:49:35;;;;;;;9.95;8.57;;;;;;;28.09;53.28;100491.94;5014334;28;20049;-74
2022/07/26 03:52:03;;;;;;;9.00;8.07;;;;;;;28.10;53.25;100500.94;5014187;28;20050;-75
2022/07/26 03:54:30;;;;;;;8.25;7.45;;;;;;;28.10;53.75;100501.78;5014169;28;20053;-75
2022/07/26 03:56:57;;;;;;;8.27;7.47;;;;;;;28.12;53.48;100503.50;5011632;28;20052;-75
2022/07/26 03:59:25;;;;;;;8.05;7.22;;;;;;;28.13;53.64;100513.31;5028778;28;20061;-75
2022/07/26 04:01:52;;;;;;;7.72;7.00;;;;;;;28.13;53.38;100503.28;5021214;28;20045;-75
2022/07/26 04:04:20;;;;;;;8.38;7.50;;;;;;;28.13;53.32;100511.44;5033863;28;20151;-75
2022/07/26 04:06:52;;;;;;;9.05;8.25;;;;;;;28.14;53.23;100502.22;5033321;28;20429;-75
2022/07/26 04:09:20;;;;;;;9.85;7.65;;;;;;;28.15;53.10;100498.47;5033255;28;20045;-75
2022/07/26 04:11:47;;;;;;;8.27;7.45;;;;;;;28.16;53.04;100499.31;5033641;28;20056;-75
2022/07/26 04:14:14;;;;;;;9.23;7.65;;;;;;;28.17;53.41;100492.84;5033262;28;20056;-75
2022/07/26 04:16:42;;;;;;;9.38;7.35;;;;;;;28.18;53.03;100494.50;5033389;28;20049;-75
2022/07/26 04:19:10;;;;;;;8.38;7.20;;;;;;;28.19;53.28;100496.19;5031982;28;20057;-75
2022/07/26 04:21:37;;;;;;;9.05;7.15;;;;;;;28.19;53.38;100501.63;5031250;28;20068;-75
2022/07/26 04:24:05;;;;;;;8.63;7.72;;;;;;;28.20;53.38;100497.88;5033196;28;20398;-75
2022/07/26 04:26:33;;;;;;;8.10;7.30;;;;;;;28.19;53.00;100491.56;5032930;28;20048;-75
2022/07/26 04:29:00;;;;;;;8.57;6.78;;;;;;;28.22;53.22;100495.78;5032945;28;20401;-75
2022/07/26 04:31:28;;;;;;;8.20;7.30;;;;;;;28.20;53.14;100496.00;5032827;28;20038;-75
2022/07/26 04:34:02;;;;;;;8.18;7.20;;;;;;;28.22;52.78;100493.06;5033342;28;20048;-75
2022/07/26 04:36:30;;;;;;;10.82;7.53;;;;;;;28.22;53.05;100499.34;5033060;28;20038;-75
2022/07/26 04:38:57;;;;;;;10.52;7.47;;;;;;;28.23;52.69;100501.03;5032792;28;20068;-76
2022/07/26 04:41:24;;;;;;;8.15;7.10;;;;;;;28.24;52.92;100504.63;5033326;28;20048;-75
2022/07/26 04:43:52;;;;;;;7.97;7.28;;;;;;;28.25;52.58;100504.41;5031356;28;20076;-75
2022/07/26 04:46:19;;;;;;;8.00;7.25;;;;;;;28.26;52.93;100513.41;5020744;28;20045;-75
2022/07/26 04:48:46;;;;;;;7.82;7.03;;;;;;;28.26;52.94;100513.41;5032997;28;20050;-75
2022/07/26 04:51:14;;;;;;;9.80;7.53;;;;;;;28.25;52.56;100512.56;5031800;28;20041;-75
2022/07/26 04:53:41;;;;;;;7.60;6.90;;;;;;;28.27;52.86;100512.38;5032718;28;20045;-75
2022/07/26 04:56:09;;;;;;;7.78;7.07;;;;;;;28.28;52.92;100514.06;5015451;28;20046;-75
2022/07/26 04:58:36;;;;;;;8.15;7.40;;;;;;;28.28;52.80;100511.34;5014855;28;20061;-75
2022/07/26 05:01:03;;;;;;;7.32;6.63;;;;;;;28.28;52.94;100504.03;5028558;28;20042;-75
2022/07/26 05:03:38;;;;;;;7.72;6.93;;;;;;;28.29;52.75;100510.31;5013066;28;20057;-75
2022/07/26 05:06:11;;;;;;;9.25;7.05;;;;;;;28.29;52.92;100508.41;5013030;28;20053;-76
2022/07/26 05:08:40;;;;;;;7.40;6.57;;;;;;;28.30;52.92;100511.97;5012963;28;20053;-75
2022/07/26 05:11:08;;;;;;;9.32;6.43;;;;;;;28.30;52.81;100509.25;5012852;28;20054;-75
2022/07/26 05:13:35;;;;;;;7.90;7.03;;;;;;;28.29;52.72;100511.13;5013009;28;20050;-76
2022/07/26 05:16:03;;;;;;;8.32;6.50;;;;;;;28.31;52.49;100505.47;5012637;28;20057;-75
2022/07/26 05:18:38;;;;;;;7.75;7.05;;;;;;;28.30;52.61;100507.38;5028058;28;20049;-76
2022/07/26 05:21:16;;;;;;;7.47;6.53;;;;;;;28.31;52.61;100503.59;5031742;28;20060;-76
2022/07/26 05:23:43;;;;;;;6.70;5.97;;;;;;;28.32;52.42;100515.34;5032252;28;20053;-76
2022/07/26 05:26:11;;;;;;;8.48;6.40;;;;;;;28.31;52.46;100514.47;5032210;28;20049;-76
2022/07/26 05:28:39;;;;;;;7.28;6.60;;;;;;;28.31;52.52;100503.59;5031565;28;20050;-76
2022/07/26 05:31:07;;;;;;;8.73;7.05;;;;;;;28.32;52.63;100507.19;5032178;28;20050;-76
2022/07/26 05:33:34;;;;;;;6.40;5.80;;;;;;;28.31;52.46;100506.31;5033680;28;20045;-76
2022/07/26 05:36:02;;;;;;;6.95;6.32;;;;;;;28.33;52.75;100506.97;5036202;28;20045;-76
2022/07/26 05:38:29;;;;;;;7.30;6.50;;;;;;;28.32;52.87;100505.31;5036718;28;20056;-76
2022/07/26 05:40:56;;;;;;;8.23;7.47;;;;;;;28.34;52.77;100507.81;5035192;28;20057;-75
2022/07/26 05:43:25;;;;;;;8.15;6.68;;;;;;;28.33;52.50;100500.69;5034508;28;20050;-75
2022/07/26 05:46:07;;;;;;;6.53;5.80;;;;;;;28.34;52.93;100508.66;5024049;28;20046;-76
2022/07/26 05:48:37;;;;;;;7.97;5.90;;;;;;;28.34;52.92;100514.09;5016149;28;20508;-76
2022/07/26 05:51:04;;;;;;;6.93;5.93;;;;;;;28.35;53.08;100507.59;5016134;28;20049;-75
2022/07/26 05:53:31;;;;;;;7.45;6.75;;;;;;;28.37;53.38;100506.63;5016017;28;20046;-75
2022/07/26 05:55:59;;;;;;;7.80;7.00;;;;;;;28.37;53.07;100512.06;5016215;28;20049;-75
2022/07/26 05:58:26;;;;;;;10.68;6.35;;;;;;;28.37;53.46;100504.72;5015782;28;20053;-75
2022/07/26 06:00:53;;;;;;;8.95;7.18;;;;;;;28.38;53.00;100511.00;5016257;28;20045;-75
2022/07/26 06:03:21;;;;;;;8.63;6.80;;;;;;;28.37;52.94;100504.72;5028358;28;20053;-75
2022/07/26 06:05:58;;;;;;;10.68;6.45;;;;;;;28.38;53.24;100511.00;5035008;28;20041;-75
2022/07/26 06:08:26;;;;;;;9.35;6.78;;;;;;;28.39;53.67;100508.09;5035354;28;20129;-75
2022/07/26 06:10:54;;;;;;;11.48;6.97;;;;;;;28.39;53.42;100505.34;5036449;28;20121;-75
2022/07/26 06:13:21;;;;;;;9.80;7.43;;;;;;;28.40;53.69;100500.75;5035973;28;20045;-75
2022/07/26 06:15:49;;;;;;;7.53;6.18;;;;;;;28.40;53.69;100498.03;5036614;28;20052;-75
2022/07/26 06:18:17;;;;;;;9.20;7.78;;;;;;;28.39;53.49;100494.47;5037325;28;20045;-76
2022/07/26 06:20:46;;;;;;;10.35;9.35;;;;;;;28.38;53.31;100502.84;5036930;28;20041;-76
2022/07/26 06:23:14;;;;;;;12.95;8.77;;;;;;;28.35;53.28;100499.44;5036388;28;20049;-76
2022/07/26 06:25:42;;;;;;;11.38;8.88;;;;;;;28.30;53.15;100498.38;5036996;28;20045;-77
2022/07/26 06:28:09;;;;;;;10.98;9.02;;;;;;;28.28;53.21;100503.19;5020660;28;20061;-77
2022/07/26 06:30:37;;;;;;;9.98;8.98;;;;;;;28.23;53.14;100497.47;5037105;28;20053;-77
2022/07/26 06:33:06;;;;;;;9.80;8.90;;;;;;;28.19;53.12;100499.75;5037029;28;20049;-78
2022/07/26 06:35:34;;;;;;;10.90;9.55;;;;;;;28.18;53.26;100497.22;5051914;28;20046;-77
2022/07/26 06:38:02;;;;;;;10.48;9.48;;;;;;;28.16;52.93;100496.59;5036412;28;20042;-77
2022/07/26 06:40:29;;;;;;;13.55;9.25;;;;;;;28.14;53.42;100495.94;5035086;28;20054;-77
2022/07/26 06:42:57;;;;;;;9.77;8.35;;;;;;;28.14;53.24;100491.34;5035824;28;20049;-77
2022/07/26 06:45:30;;;;;;;13.15;8.93;;;;;;;28.15;53.41;100494.91;5035047;28;20052;-77
2022/07/26 06:47:58;;;;;;;13.32;8.43;;;;;;;28.15;53.59;100484.00;5035990;28;20041;-77
2022/07/26 06:50:25;;;;;;;10.35;8.65;;;;;;;28.15;53.20;100495.75;5035779;28;20052;-76
2022/07/26 06:52:54;;;;;;;12.18;9.00;;;;;;;28.15;53.10;100489.47;5033747;28;20061;-77
2022/07/26 06:55:22;;;;;;;10.20;8.93;;;;;;;28.15;53.19;100486.72;5036420;28;20061;-78
2022/07/26 06:57:49;;;;;;;10.50;8.02;;;;;;;28.17;53.19;100490.94;5036008;28;20065;-78
2022/07/26 07:00:17;;;;;;;13.05;8.75;;;;;;;28.17;52.93;100488.22;5035532;28;20045;-78
2022/07/26 07:02:45;;;;;;;9.40;8.20;;;;;;;28.19;52.09;100488.84;5035049;28;20516;-78
2022/07/26 07:05:12;;;;;;;9.25;8.10;;;;;;;28.19;51.33;100483.41;5035076;28;20405;-77
2022/07/26 07:07:40;;;;;;;10.93;8.35;;;;;;;28.21;51.68;100486.78;5035525;28;20052;-83
2022/07/26 07:10:09;;;;;;;9.30;7.63;;;;;;;28.23;51.86;100492.88;5033375;28;20053;-77
2022/07/26 07:12:39;;;;;;;8.60;7.78;;;;;;;28.23;51.94;100489.31;5035349;28;20532;-77
2022/07/26 07:15:07;;;;;;;9.27;8.27;;;;;;;28.22;51.60;100480.31;5033419;28;20069;-77
2022/07/26 07:17:35;;;;;;;9.73;7.13;;;;;;;28.23;51.36;100483.88;5035108;28;20086;-78
2022/07/26 07:20:04;;;;;;;9.43;7.57;;;;;;;28.24;51.42;100482.84;5035372;28;20049;-77
2022/07/26 07:22:32;;;;;;;9.02;7.70;;;;;;;28.23;51.45;100479.25;5034943;28;20052;-77
2022/07/26 07:24:59;;;;;;;8.13;7.30;;;;;;;28.24;51.25;100477.41;5032792;28;20057;-78
2022/07/26 07:27:29;;;;;;;8.70;7.25;;;;;;;28.26;51.05;100478.03;5034711;28;20397;-77
2022/07/26 07:29:56;;;;;;;7.80;7.00;;;;;;;28.27;51.50;100477.81;5034429;28;20045;-76
2022/07/26 07:32:23;;;;;;;9.40;6.90;;;;;;;28.28;51.04;100476.78;5034105;28;20518;-77
2022/07/26 07:34:52;;;;;;;9.43;7.13;;;;;;;28.29;51.09;100477.63;5034349;28;20057;-77
2022/07/26 07:37:19;;;;;;;6.82;6.22;;;;;;;28.30;51.18;100468.41;5034297;28;20049;-77
2022/07/26 07:39:48;;;;;;;8.73;6.90;;;;;;;28.30;51.13;100469.25;5032756;28;20049;-78
2022/07/26 07:42:18;;;;;;;8.10;6.95;;;;;;;28.31;51.10;100459.19;5033858;28;20470;-77
2022/07/26 07:44:46;;;;;;;9.80;7.75;;;;;;;28.32;50.87;100467.19;5049972;28;20053;-77
2022/07/26 07:47:14;;;;;;;8.85;7.20;;;;;;;28.33;51.39;100468.03;5034029;28;20049;-77
2022/07/26 07:49:42;;;;;;;7.88;7.10;;;;;;;28.34;50.76;100462.38;5033578;28;20489;-77
2022/07/26 07:52:09;;;;;;;7.47;6.00;;;;;;;28.35;51.16;100463.19;5034687;28;20053;-76
2022/07/26 07:54:37;;;;;;;12.52;7.57;;;;;;;28.36;50.90;100470.38;5033664;28;20049;-77
2022/07/26 07:57:04;;;;;;;9.35;6.32;;;;;;;28.37;51.04;100460.34;5033590;28;20044;-77
2022/07/26 07:59:32;;;;;;;8.52;7.13;;;;;;;28.38;51.04;100460.13;5033604;28;20045;-76
2022/07/26 08:02:05;;;;;;;10.20;6.72;;;;;;;28.39;50.85;100466.41;5031850;28;20041;-77
2022/07/26 08:04:32;;;;;;;7.95;7.15;;;;;;;28.40;51.08;100458.06;5033307;28;20056;-77
2022/07/26 08:07:00;;;;;;;11.82;7.35;;;;;;;28.41;50.55;100458.88;5033589;28;20053;-77
2022/07/26 08:09:28;;;;;;;6.93;6.25;;;;;;;28.42;50.50;100458.69;5033565;28;20037;-77
2022/07/26 08:12:00;;;;;;;7.25;6.53;;;;;;;28.44;50.70;100458.47;5033908;28;20056;-77
2022/07/26 08:14:28;;;;;;;11.07;7.65;;;;;;;28.44;50.16;100459.34;5032942;28;20049;-77
2022/07/26 08:16:56;;;;;;;10.05;7.55;;;;;;;28.45;50.61;100461.00;5033671;28;20052;-77
2022/07/26 08:19:24;;;;;;;8.45;6.65;;;;;;;28.45;50.48;100461.00;5033418;28;20053;-77
2022/07/26 08:21:55;;;;;;;15.30;7.72;;;;;;;28.47;50.22;100466.25;5033446;28;20068;-77
2022/07/26 08:24:23;;;;;;;7.63;6.80;;;;;;;28.48;50.25;100466.06;5033130;28;20058;-77
2022/07/26 08:26:52;;;;;;;8.65;7.30;;;;;;;28.49;50.56;100473.19;5033136;28;20105;-77
2022/07/26 08:29:20;;;;;;;10.65;7.45;;;;;;;28.50;50.07;100460.41;5033724;28;20052;-77
2022/07/26 08:31:49;;;;;;;7.47;6.70;;;;;;;28.50;50.04;100463.13;5033102;28;20075;-77
2022/07/26 08:34:17;;;;;;;7.63;6.82;;;;;;;28.51;49.99;100462.91;5033203;28;20393;-77
2022/07/26 08:36:44;;;;;;;7.43;6.60;;;;;;;28.51;50.16;100459.34;5033092;28;20052;-77
2022/07/26 08:39:31;;;;;;;7.88;7.07;;;;;;;28.52;50.09;100467.34;5033462;28;20426;-77
2022/07/26 08:42:01;;;;;;;9.32;6.55;;;;;;;28.53;50.24;100466.28;5033307;28;20053;-77
2022/07/26 08:44:29;;;;;;;7.63;6.90;;;;;;;28.54;50.44;100467.13;5033648;28;20380;-77
2022/07/26 08:46:56;;;;;;;8.63;6.00;;;;;;;28.56;50.39;100462.28;5032084;28;20050;-77
2022/07/26 08:49:23;;;;;;;9.60;7.53;;;;;;;28.56;49.91;100465.88;5033373;28;20057;-77
2022/07/26 08:51:52;;;;;;;8.57;6.65;;;;;;;28.56;49.97;100463.16;5033207;28;20061;-77
2022/07/26 08:54:19;;;;;;;10.20;7.40;;;;;;;28.57;49.93;100461.28;5032956;28;20049;-77
2022/07/26 08:56:52;;;;;;;8.73;7.25;;;;;;;28.59;50.17;100470.06;5033350;28;20042;-78
2022/07/26 08:59:20;;;;;;;7.90;7.10;;;;;;;28.59;50.40;100462.75;5033032;28;20406;-77
2022/07/26 09:02:01;;;;;;;9.48;7.38;;;;;;;28.62;50.21;100460.66;5033414;28;20052;-77
2022/07/26 09:04:31;;;;;;;9.88;6.65;;;;;;;28.62;50.43;100464.22;5033235;28;20045;-77
2022/07/26 09:07:10;;;;;;;8.23;7.13;;;;;;;28.63;49.92;100463.19;5032701;28;20045;-77
2022/07/26 09:09:56;;;;;;;7.93;6.47;;;;;;;28.63;50.31;100465.91;5036316;28;20049;-77
2022/07/26 09:12:24;;;;;;;9.02;6.15;;;;;;;28.65;50.24;100465.72;5036355;28;20064;-78
2022/07/26 09:14:53;;;;;;;10.40;6.35;;;;;;;28.65;49.93;100466.56;5036318;28;20045;-78
2022/07/26 09:17:23;;;;;;;8.40;6.70;;;;;;;28.66;49.70;100465.50;5037041;28;20049;-77
2022/07/26 09:20:05;;;;;;;8.30;6.68;;;;;;;28.69;49.59;100467.00;5036783;28;20049;-77
2022/07/26 09:22:33;;;;;;;8.38;7.53;;;;;;;28.70;49.20;100466.78;5037205;28;20053;-77
2022/07/26 09:25:01;;;;;;;8.55;7.75;;;;;;;28.72;48.99;100461.94;5036663;28;20054;-77
2022/07/26 09:27:37;;;;;;;8.25;7.45;;;;;;;28.73;49.30;100468.28;5037534;28;20052;-78
2022/07/26 09:30:07;;;;;;;8.93;6.65;;;;;;;28.75;48.34;100461.56;5037351;28;20095;-78
2022/07/26 09:32:37;;;;;;;8.18;6.78;;;;;;;28.77;48.24;100464.94;5037015;28;20049;-77
2022/07/26 09:35:16;;;;;;;8.50;6.47;;;;;;;28.77;48.44;100458.66;5036883;28;20046;-77
2022/07/26 09:38:14;;;;;;;7.30;6.47;;;;;;;28.75;48.73;100458.84;5036738;28;20046;-77
2022/07/26 09:40:42;;;;;;;9.43;6.82;;;;;;;28.78;48.60;100460.31;5036871;28;20049;-77
2022/07/26 09:43:17;;;;;;;6.85;6.05;;;;;;;28.79;47.86;100462.81;5036610;28;20049;-77
2022/07/26 09:46:04;;;;;;;7.38;6.72;;;;;;;28.80;47.88;100459.09;5036940;28;20060;-77
2022/07/26 09:48:35;;;;;;;9.63;6.22;;;;;;;28.80;48.25;100464.53;5037020;28;20051;-77
2022/07/26 09:51:39;;;;;;;7.88;6.07;;;;;;;28.80;48.00;100467.25;5036582;28;20042;-77
2022/07/26 09:54:15;;;;;;;8.57;6.65;;;;;;;28.81;48.43;100465.38;5035186;28;20052;-77
2022/07/26 09:56:46;;;;;;;9.73;6.60;;;;;;;28.81;48.47;100451.75;5036628;28;20042;-77
2022/07/26 09:59:18;;;;;;;7.53;6.75;;;;;;;28.80;48.44;100459.09;5036586;28;20045;-77
2022/07/26 10:01:46;;;;;;;8.55;6.47;;;;;;;28.80;48.67;100461.81;5036395;28;20050;-77
2022/07/26 10:04:14;;;;;;;7.00;6.40;;;;;;;28.80;48.60;100456.38;5036609;28;20046;-77
2022/07/26 10:06:43;;;;;;;8.82;6.47;;;;;;;28.81;48.56;100462.66;5036147;28;20401;-77
2022/07/26 10:09:12;;;;;;;7.80;7.00;;;;;;;28.82;48.59;100462.44;5036479;28;20053;-77
2022/07/26 10:12:05;;;;;;;10.93;7.38;;;;;;;28.85;48.13;100466.66;5036152;28;20056;-77
2022/07/26 10:14:37;;;;;;;7.82;6.97;;;;;;;28.88;48.21;100466.22;5037048;28;20104;-77
2022/07/26 10:17:26;;;;;;;10.05;6.85;;;;;;;28.91;48.42;100462.25;5036002;28;20045;-77
2022/07/26 10:20:04;;;;;;;7.32;6.47;;;;;;;28.91;48.16;100459.53;5034175;28;20046;-77
2022/07/26 10:22:46;;;;;;;7.10;5.80;;;;;;;28.89;48.43;100457.03;5020295;28;20053;-77
2022/07/26 10:25:16;;;;;;;8.15;6.90;;;;;;;28.90;48.54;100460.56;5035569;28;20485;-77
2022/07/26 10:27:45;;;;;;;8.15;6.85;;;;;;;28.90;48.77;100455.13;5035937;28;20068;-77
2022/07/26 10:30:19;;;;;;;6.78;6.18;;;;;;;28.89;48.80;100446.13;5035260;28;20046;-77
2022/07/26 10:32:49;;;;;;;6.70;5.95;;;;;;;28.91;48.49;100459.53;5018584;28;20060;-77
2022/07/26 10:35:35;;;;;;;10.90;6.55;;;;;;;28.91;48.39;100448.63;5035861;28;20045;-77
2022/07/26 10:38:08;;;;;;;7.60;6.85;;;;;;;28.92;47.97;100461.19;5035753;28;20041;-78
2022/07/26 10:40:37;;;;;;;8.13;6.57;;;;;;;28.92;48.54;100451.13;5035477;28;20049;-77
2022/07/26 10:43:12;;;;;;;7.10;6.40;;;;;;;28.93;51.34;100449.28;5036295;28;20056;-78
2022/07/26 10:46:14;;;;;;;10.15;6.60;;;;;;;28.93;49.07;100441.09;5035432;28;20485;-78
2022/07/26 10:49:07;;;;;;;;;;;;;;;28.92;51.88;100437.50;5036498;28;20054;-77
2022/07/26 10:51:38;;;;;;;7.13;6.32;;;;;;;28.89;51.81;100446.13;5035286;28;20380;-77
2022/07/26 10:54:08;;;;;;;7.70;5.90;;;;;;;28.86;48.98;100438.34;5035101;28;20141;-77
2022/07/26 10:56:37;;;;;;;8.00;6.55;;;;;;;28.88;51.10;100444.41;5035160;28;20045;-77
2022/07/26 10:59:05;;;;;;;9.88;6.70;;;;;;;28.87;50.77;100440.03;5035154;28;20052;-78
2022/07/26 11:01:39;;;;;;;8.35;6.65;;;;;;;28.87;49.22;100437.28;5034739;28;20050;-78
2022/07/26 11:04:20;;;;;;;8.27;7.00;;;;;;;28.88;51.21;100440.84;5034929;28;20049;-78
2022/07/26 11:06:48;;;;;;;7.57;6.25;;;;;;;28.86;50.71;100438.34;5033591;28;20054;-77
2022/07/26 11:09:18;;;;;;;8.88;6.45;;;;;;;28.85;50.87;100428.50;5035357;28;20037;-78
2022/07/26 11:11:51;;;;;;;8.82;6.88;;;;;;;28.88;48.50;100435.41;5035287;28;20371;-78
2022/07/26 11:14:18;;;;;;;6.95;6.25;;;;;;;28.90;49.80;100431.44;5034973;28;20048;-78
2022/07/26 11:16:47;;;;;;;7.30;5.80;;;;;;;28.89;50.67;100432.50;5034625;28;20056;-77
2022/07/26 11:19:17;;;;;;;8.70;6.68;;;;;;;28.88;48.28;100432.69;5033599;28;20049;-84
2022/07/26 11:21:51;;;;;;;10.85;6.55;;;;;;;28.88;48.22;100425.34;5035207;28;20409;-79
2022/07/26 11:24:20;;;;;;;8.63;7.05;;;;;;;28.93;48.05;100422.03;5035086;28;20045;-77
2022/07/26 11:26:48;;;;;;;11.07;7.07;;;;;;;28.95;49.00;100430.81;5033750;28;20060;-77
2022/07/26 11:29:28;;;;;;;7.93;6.93;;;;;;;28.97;48.89;100426.06;5034520;28;20048;-78
2022/07/26 11:32:15;;;;;;;7.38;6.57;;;;;;;29.00;48.71;100437.34;5034274;28;20060;-77
2022/07/26 11:34:45;;;;;;;7.65;6.80;;;;;;;29.00;47.31;100420.16;5034851;28;20049;-78
2022/07/26 11:37:12;;;;;;;7.07;6.38;;;;;;;29.01;48.65;100422.72;5034517;28;20099;-77
2022/07/26 11:39:40;;;;;;;7.10;6.40;;;;;;;29.00;50.20;100420.16;5033947;28;20052;-77